.
WxDataArchive / Data Records for 2010-01-12
2010-01-11 January 2010 2010-01-13

Data Records for Tuesday, 12 January 2010

Time	Temp	Chill	HIndex	Humid	Dewpt	 Wind 	HiWind	WindDir	Rain 	Barom 
-----	----	-----	------	-----	-----	------	------	-------	-----	----- 
00:00	19.2	19.2	19.2	90	16.8	0	1	338	0.00	30.299 
00:05	19.7	19.7	19.7	90	17.3	0	1	338	0.00	30.299 
00:10	19.9	19.9	19.9	90	17.5	0	0	---	0.00	30.299 
00:15	20.0	20.0	20.0	90	17.5	0	0	---	0.00	30.303 
00:20	20.2	20.2	20.2	90	17.7	0	1	338	0.00	30.303 
00:25	20.3	20.3	20.3	90	17.8	0	0	---	0.00	30.303 
00:30	20.3	20.3	20.3	91	18.1	0	0	---	0.00	30.299 
00:35	20.5	20.5	20.5	90	18.0	0	0	---	0.00	30.299 
00:40	20.5	20.5	20.5	90	18.0	0	0	---	0.00	30.299 
00:45	20.5	20.5	20.5	90	18.0	0	0	---	0.00	30.298 
00:50	20.3	20.3	20.3	90	17.8	0	0	---	0.00	30.298 
00:55	20.3	20.3	20.3	90	17.8	0	0	---	0.00	30.298 
01:00	20.3	20.3	20.3	90	17.8	0	0	---	0.00	30.304 
01:05	20.5	20.5	20.5	90	18.0	0	1	338	0.00	30.304 
01:10	20.5	20.5	20.5	90	18.0	0	1	338	0.00	30.304 
01:15	20.5	20.5	20.5	90	18.0	0	1	338	0.00	30.305 
01:20	20.6	20.6	20.6	90	18.1	0	2	338	0.00	30.305 
01:25	20.6	20.6	20.6	90	18.1	0	1	338	0.00	30.305 
01:30	20.6	20.6	20.6	90	18.1	0	0	---	0.00	30.299 
01:35	20.6	20.6	20.6	90	18.1	0	1	338	0.00	30.299 
01:40	20.6	20.6	20.6	90	18.1	0	1	338	0.00	30.299 
01:45	20.6	20.6	20.6	90	18.1	0	0	---	0.00	30.303 
01:50	20.6	20.6	20.6	89	17.9	0	1	338	0.00	30.303 
01:55	20.6	20.6	20.6	89	17.9	0	2	338	0.00	30.303 
02:00	20.6	20.6	20.6	89	17.9	0	1	338	0.00	30.310 
02:05	20.6	20.6	20.6	89	17.9	0	1	338	0.00	30.310 
02:10	20.6	20.6	20.6	89	17.9	0	1	338	0.00	30.310 
02:15	21.0	21.0	21.0	89	18.3	0	1	338	0.00	30.324 
02:20	21.1	21.1	21.1	89	18.4	0	2	338	0.00	30.324 
02:25	21.3	21.3	21.3	89	18.6	0	1	338	0.00	30.324 
02:30	21.6	21.6	21.6	89	18.9	0	1	338	0.00	30.327 
02:35	21.8	21.8	21.8	89	19.1	0	2	338	0.00	30.327 
02:40	21.9	21.9	21.9	88	18.9	0	4	292	0.00	30.327 
02:45	21.9	21.9	21.9	88	18.9	1	2	292	0.00	30.337 
02:50	21.8	21.8	21.8	87	18.5	0	2	292	0.00	30.337 
02:55	21.8	21.8	21.8	87	18.5	0	2	292	0.00	30.337 
03:00	21.6	21.6	21.6	86	18.1	0	2	292	0.00	30.343 
03:05	21.6	21.6	21.6	86	18.1	0	2	292	0.00	30.343 
03:10	21.6	21.6	21.6	86	18.1	0	2	292	0.00	30.343 
03:15	21.4	21.4	21.4	85	17.6	0	1	292	0.00	30.353 
03:20	21.3	21.3	21.3	85	17.5	0	1	292	0.00	30.353 
03:25	21.3	21.3	21.3	85	17.5	0	2	0	0.00	30.353 
03:30	21.3	21.3	21.3	85	17.5	0	2	0	0.00	30.356 
03:35	21.3	21.3	21.3	84	17.2	0	3	0	0.00	30.356 
03:40	21.1	21.1	21.1	84	17.0	0	2	0	0.00	30.356 
03:45	21.1	21.1	21.1	84	17.0	0	2	0	0.00	30.356 
03:50	21.0	21.0	21.0	84	16.9	0	3	0	0.00	30.356 
03:55	21.1	21.1	21.1	84	17.0	1	2	338	0.00	30.356 
04:00	21.3	21.3	21.3	84	17.2	0	4	270	0.00	30.358 
04:05	21.6	21.6	21.6	84	17.5	1	3	292	0.00	30.358 
04:10	21.8	21.8	21.8	84	17.7	0	2	292	0.00	30.358 
04:15	21.8	21.8	21.8	83	17.4	1	2	292	0.00	30.367 
04:20	21.9	21.9	21.9	83	17.5	0	2	315	0.00	30.367 
04:25	21.8	21.8	21.8	82	17.2	0	2	315	0.00	30.367 
04:30	21.8	21.8	21.8	82	17.2	1	4	315	0.00	30.373 
04:35	21.8	21.8	21.8	82	17.2	1	3	338	0.00	30.373 
04:40	21.8	21.8	21.8	82	17.2	1	3	270	0.00	30.373 
04:45	21.6	21.6	21.6	81	16.7	1	5	338	0.00	30.376 
04:50	21.4	21.4	21.4	81	16.5	0	5	248	0.00	30.376 
04:55	21.3	21.3	21.3	81	16.4	1	2	338	0.00	30.376 
05:00	21.3	21.3	21.3	81	16.4	0	2	0	0.00	30.384 
05:05	21.3	21.3	21.3	81	16.4	0	2	0	0.00	30.384 
05:10	21.3	21.3	21.3	81	16.4	0	2	292	0.00	30.384 
05:15	21.4	21.4	21.4	82	16.8	1	3	292	0.00	30.388 
05:20	21.6	21.6	21.6	81	16.7	1	3	292	0.00	30.388 
05:25	21.6	21.6	21.6	81	16.7	0	2	315	0.00	30.388 
05:30	21.4	21.4	21.4	81	16.5	1	4	292	0.00	30.387 
05:35	21.3	21.3	21.3	81	16.4	1	4	292	0.00	30.387 
05:40	21.1	21.1	21.1	81	16.2	0	1	315	0.00	30.387 
05:45	21.0	21.0	21.0	81	16.1	0	1	315	0.00	30.388 
05:50	20.6	20.6	20.6	81	15.7	0	2	315	0.00	30.388 
05:55	20.5	20.5	20.5	81	15.6	0	1	315	0.00	30.388 
06:00	20.3	20.3	20.3	81	15.4	0	1	315	0.00	30.392 
06:05	20.0	20.0	20.0	81	15.1	0	1	315	0.00	30.392 
06:10	19.9	19.9	19.9	81	15.0	0	1	315	0.00	30.392 
06:15	19.5	19.5	19.5	81	14.6	0	1	315	0.00	30.406 
06:20	19.4	19.4	19.4	81	14.5	0	1	315	0.00	30.406 
06:25	19.2	19.2	19.2	82	14.6	0	1	315	0.00	30.406 
06:30	19.2	19.2	19.2	82	14.6	0	1	315	0.00	30.419 
06:35	19.1	19.1	19.1	82	14.5	0	1	315	0.00	30.419 
06:40	19.1	19.1	19.1	82	14.5	0	1	315	0.00	30.419 
06:45	19.1	19.1	19.1	82	14.5	0	2	315	0.00	30.421 
06:50	19.1	19.1	19.1	82	14.5	0	1	315	0.00	30.421 
06:55	18.9	18.9	18.9	82	14.3	0	1	315	0.00	30.421 
07:00	18.8	18.8	18.8	82	14.2	0	0	---	0.00	30.425 
07:05	18.6	18.6	18.6	82	14.0	0	1	315	0.00	30.425 
07:10	18.4	18.4	18.4	82	13.8	0	1	315	0.00	30.425 
07:15	18.4	18.4	18.4	82	13.8	0	1	315	0.00	30.435 
07:20	18.3	18.3	18.3	82	13.7	0	1	315	0.00	30.435 
07:25	18.3	18.3	18.3	82	13.7	0	1	315	0.00	30.435 
07:30	18.3	18.3	18.3	82	13.7	0	2	315	0.00	30.440 
07:35	18.3	18.3	18.3	82	13.7	0	2	315	0.00	30.440 
07:40	18.3	18.3	18.3	82	13.7	0	1	315	0.00	30.440 
07:45	18.1	18.1	18.1	82	13.5	0	1	315	0.00	30.441 
07:50	18.1	18.1	18.1	82	13.5	0	1	315	0.00	30.441 
07:55	17.8	17.8	17.8	81	13.0	0	1	315	0.00	30.441 
08:00	17.8	17.8	17.8	82	13.3	0	1	315	0.00	30.445 
08:05	17.7	17.7	17.7	82	13.2	0	0	---	0.00	30.445 
08:10	17.5	17.5	17.5	82	13.0	0	1	315	0.00	30.445 
08:15	17.3	17.3	17.3	82	12.8	0	1	315	0.00	30.454 
08:20	17.2	17.2	17.2	82	12.7	0	1	315	0.00	30.454 
08:25	17.2	17.2	17.2	82	12.7	0	1	315	0.00	30.454 
08:30	17.0	17.0	17.0	82	12.5	0	2	315	0.00	30.447 
08:35	17.2	17.2	17.2	82	12.7	0	1	315	0.00	30.447 
08:40	17.2	17.2	17.2	82	12.7	0	1	292	0.00	30.447 
08:45	17.2	17.2	17.2	82	12.7	0	2	292	0.00	30.452 
08:50	17.2	17.2	17.2	81	12.4	0	0	---	0.00	30.452 
08:55	17.2	17.2	17.2	81	12.4	0	2	292	0.00	30.452 
09:00	17.3	17.3	17.3	81	12.5	0	3	292	0.00	30.457 
09:05	17.3	17.3	17.3	81	12.5	0	1	270	0.00	30.457 
09:10	17.5	17.5	17.5	80	12.4	0	2	270	0.00	30.457 
09:15	17.7	17.7	17.7	80	12.6	0	2	270	0.00	30.463 
09:20	17.7	17.7	17.7	79	12.3	1	4	270	0.00	30.463 
09:25	17.8	17.8	17.8	79	12.4	0	3	315	0.00	30.463 
09:30	18.0	18.0	18.0	78	12.3	1	4	292	0.00	30.471 
09:35	18.1	18.1	18.1	78	12.4	1	2	270	0.00	30.471 
09:40	18.4	18.4	18.4	77	12.4	0	2	270	0.00	30.471 
09:45	18.6	18.6	18.6	77	12.6	1	3	270	0.00	30.470 
09:50	18.9	18.9	18.9	76	12.6	1	3	292	0.00	30.470 
09:55	19.1	19.1	19.1	75	12.5	0	2	0	0.00	30.470 
10:00	19.2	19.2	19.2	75	12.6	1	4	0	0.00	30.472 
10:05	19.4	19.4	19.4	74	12.5	0	3	248	0.00	30.472 
10:10	19.7	19.7	19.7	74	12.8	0	2	270	0.00	30.472 
10:15	20.0	20.0	20.0	73	12.8	1	2	270	0.00	30.472 
10:20	20.2	20.2	20.2	73	13.0	1	3	270	0.00	30.472 
10:25	20.5	20.5	20.5	73	13.2	0	2	270	0.00	30.472 
10:30	20.6	20.6	20.6	72	13.0	0	1	270	0.00	30.459 
10:35	21.0	21.0	21.0	72	13.4	0	2	270	0.00	30.459 
10:40	21.1	21.1	21.1	71	13.2	0	2	270	0.00	30.459 
10:45	21.3	21.3	21.3	70	13.1	0	3	22	0.00	30.461 
10:50	21.4	21.4	21.4	70	13.2	0	2	22	0.00	30.461 
10:55	21.6	21.6	21.6	70	13.4	0	1	22	0.00	30.461 
11:00	21.9	21.9	21.9	69	13.3	0	2	22	0.00	30.458 
11:05	22.1	22.1	22.1	69	13.5	0	1	22	0.00	30.458 
11:10	22.1	22.1	22.1	69	13.5	0	2	22	0.00	30.458 
11:15	22.2	22.2	22.2	69	13.6	0	1	22	0.00	30.463 
11:20	22.5	22.5	22.5	68	13.6	0	1	22	0.00	30.463 
11:25	22.9	22.9	22.9	68	13.9	0	2	22	0.00	30.463 
11:30	23.0	23.0	23.0	67	13.7	0	1	22	0.00	30.469 
11:35	23.3	23.3	23.3	67	14.0	0	1	22	0.00	30.469 
11:40	23.6	23.6	23.6	67	14.3	0	1	22	0.00	30.469 
11:45	23.8	23.8	23.8	66	14.1	0	2	22	0.00	30.467 
11:50	23.9	23.9	23.9	66	14.2	0	1	22	0.00	30.467 
11:55	24.1	24.1	24.1	65	14.1	0	2	202	0.00	30.467 
12:00	24.2	24.2	24.2	65	14.2	0	1	202	0.00	30.463 
12:05	24.4	24.4	24.4	65	14.3	0	2	202	0.00	30.463 
12:10	24.5	24.5	24.5	64	14.1	0	2	202	0.00	30.463 
12:15	24.8	24.8	24.8	65	14.7	0	1	202	0.00	30.468 
12:20	25.1	25.1	25.1	64	14.7	1	3	270	0.00	30.468 
12:25	25.4	25.4	25.4	63	14.6	1	3	315	0.00	30.468 
12:30	25.6	25.6	25.6	63	14.8	0	2	0	0.00	30.470 
12:35	25.7	25.7	25.7	62	14.5	0	2	0	0.00	30.470 
12:40	25.8	25.8	25.8	62	14.6	0	2	0	0.00	30.470 
12:45	26.0	26.0	26.0	62	14.8	0	2	0	0.00	30.464 
12:50	26.1	26.1	26.1	62	14.9	0	2	0	0.00	30.464 
12:55	26.4	26.4	26.4	61	14.8	1	2	248	0.00	30.464 
13:00	26.6	26.6	26.6	61	15.0	0	2	248	0.00	30.450 
13:05	26.7	26.7	26.7	60	14.7	0	2	248	0.00	30.450 
13:10	26.9	26.9	26.9	60	14.9	0	3	248	0.00	30.450 
13:15	27.2	27.2	27.2	60	15.2	1	2	248	0.00	30.434 
13:20	27.3	27.3	27.3	59	14.9	1	2	248	0.00	30.434 
13:25	27.0	27.0	27.0	58	14.2	1	3	248	0.00	30.434 
13:30	27.0	27.0	27.0	58	14.2	1	3	248	0.00	30.434 
13:35	27.0	27.0	27.0	58	14.2	1	3	248	0.00	30.434 
13:40	26.7	26.7	26.7	58	13.9	1	5	292	0.00	30.434 
13:45	26.7	26.7	26.7	58	13.9	0	3	225	0.00	30.433 
13:50	26.7	26.7	26.7	58	13.9	1	3	0	0.00	30.433 
13:55	26.9	26.9	26.9	58	14.1	1	2	338	0.00	30.433 
14:00	26.9	26.9	26.9	59	14.5	1	3	315	0.00	30.441 
14:05	26.9	26.9	26.9	58	14.1	2	4	292	0.00	30.441 
14:10	26.7	26.7	26.7	58	13.9	1	4	315	0.00	30.441 
14:15	26.4	26.4	26.4	58	13.7	1	3	315	0.00	30.437 
14:20	26.3	26.3	26.3	59	13.9	1	3	270	0.00	30.437 
14:25	26.1	26.1	26.1	59	13.8	1	5	270	0.00	30.437 
14:30	26.1	26.1	26.1	60	14.1	1	4	248	0.00	30.438 
14:35	26.3	26.3	26.3	60	14.3	1	3	248	0.00	30.438 
14:40	26.1	26.1	26.1	60	14.1	1	4	315	0.00	30.438 
14:45	26.1	26.1	26.1	60	14.1	1	4	338	0.00	30.439 
14:50	26.1	26.1	26.1	61	14.5	1	4	270	0.00	30.439 
14:55	26.0	26.0	26.0	61	14.4	2	4	315	0.00	30.439 
15:00	26.0	26.0	26.0	61	14.4	1	5	270	0.00	30.439 
15:05	25.8	25.8	25.8	62	14.6	2	4	270	0.00	30.439 
15:10	25.7	25.7	25.7	62	14.5	1	4	270	0.00	30.439 
15:15	25.6	25.6	25.6	62	14.4	1	3	270	0.00	30.436 
15:20	25.4	25.4	25.4	62	14.2	1	4	270	0.00	30.436 
15:25	25.3	25.3	25.3	63	14.5	1	2	270	0.00	30.436 
15:30	25.1	25.1	25.1	64	14.7	2	4	270	0.00	30.442 
15:35	25.0	25.0	25.0	65	14.9	2	4	292	0.00	30.442 
15:40	24.8	24.8	24.8	67	15.4	1	5	270	0.00	30.442 
15:45	24.7	24.7	24.7	67	15.3	1	3	315	0.00	30.448 
15:50	24.5	24.5	24.5	68	15.5	1	3	338	0.00	30.448 
15:55	24.2	24.2	24.2	69	15.5	1	3	315	0.00	30.448 
16:00	24.2	24.2	24.2	70	15.9	1	2	270	0.00	30.452 
16:05	24.2	24.2	24.2	70	15.9	1	5	270	0.00	30.452 
16:10	24.2	24.2	24.2	71	16.2	0	2	270	0.00	30.452 
16:15	24.1	24.1	24.1	72	16.4	1	3	338	0.00	30.452 
16:20	24.1	24.1	24.1	72	16.4	1	3	338	0.00	30.452 
16:25	23.9	23.9	23.9	73	16.5	1	3	315	0.00	30.452 
16:30	23.9	23.9	23.9	73	16.5	0	3	315	0.00	30.442 
16:35	23.9	23.9	23.9	74	16.8	0	2	270	0.00	30.442 
16:40	24.1	24.1	24.1	74	17.0	0	2	270	0.00	30.442 
16:45	24.1	24.1	24.1	74	17.0	0	1	270	0.00	30.449 
16:50	24.2	24.2	24.2	74	17.1	0	2	270	0.00	30.449 
16:55	24.2	24.2	24.2	75	17.4	0	1	270	0.00	30.449 
17:00	24.4	24.4	24.4	75	17.6	0	2	270	0.00	30.436 
17:05	24.4	24.4	24.4	76	17.9	0	1	270	0.00	30.436 
17:10	24.4	24.4	24.4	76	17.9	0	1	270	0.00	30.436 
17:15	24.5	24.5	24.5	76	18.0	0	1	270	0.00	30.433 
17:20	24.5	24.5	24.5	76	18.0	0	1	270	0.00	30.433 
17:25	24.5	24.5	24.5	77	18.3	0	1	270	0.00	30.433 
17:30	24.5	24.5	24.5	77	18.3	0	2	270	0.00	30.438 
17:35	24.5	24.5	24.5	77	18.3	0	1	270	0.00	30.438 
17:40	24.7	24.7	24.7	77	18.5	0	1	270	0.00	30.438 
17:45	24.7	24.7	24.7	77	18.5	0	1	270	0.00	30.441 
17:50	24.7	24.7	24.7	77	18.5	0	1	270	0.00	30.441 
17:55	24.7	24.7	24.7	77	18.5	0	1	270	0.00	30.441 
18:00	24.7	24.7	24.7	77	18.5	0	2	270	0.00	30.436 
18:05	24.8	24.8	24.8	78	18.9	0	2	270	0.00	30.436 
18:10	24.8	24.8	24.8	78	18.9	0	1	270	0.00	30.436 
18:15	24.8	24.8	24.8	78	18.9	0	1	270	0.00	30.437 
18:20	24.8	24.8	24.8	78	18.9	0	1	270	0.00	30.437 
18:25	25.0	25.0	25.0	78	19.1	0	1	270	0.00	30.437 
18:30	25.0	25.0	25.0	78	19.1	0	1	270	0.00	30.439 
18:35	25.0	25.0	25.0	78	19.1	0	1	270	0.00	30.439 
18:40	25.1	25.1	25.1	78	19.2	0	2	270	0.00	30.439 
18:45	25.1	25.1	25.1	79	19.5	0	2	270	0.00	30.436 
18:50	25.1	25.1	25.1	78	19.2	1	3	248	0.00	30.436 
18:55	25.1	25.1	25.1	78	19.2	0	2	248	0.00	30.436 
19:00	25.1	25.1	25.1	78	19.2	0	2	248	0.00	30.432 
19:05	25.1	25.1	25.1	78	19.2	0	1	248	0.00	30.432 
19:10	25.1	25.1	25.1	78	19.2	0	2	248	0.00	30.432 
19:15	25.1	25.1	25.1	78	19.2	0	4	270	0.00	30.436 
19:20	25.3	25.3	25.3	78	19.4	0	3	270	0.00	30.436 
19:25	25.3	25.3	25.3	78	19.4	0	2	270	0.00	30.436 
19:30	25.3	25.3	25.3	78	19.4	1	3	270	0.00	30.437 
19:35	25.4	25.4	25.4	78	19.5	0	3	270	0.00	30.437 
19:40	25.4	25.4	25.4	78	19.5	0	2	270	0.00	30.437 
19:45	25.4	25.4	25.4	78	19.5	1	2	270	0.00	30.436 
19:50	25.4	25.4	25.4	78	19.5	1	4	270	0.00	30.436 
19:55	25.6	25.6	25.6	79	20.0	1	2	248	0.00	30.436 
20:00	25.6	25.6	25.6	79	20.0	1	3	248	0.00	30.438 
20:05	25.6	25.6	25.6	78	19.7	1	4	270	0.00	30.438 
20:10	25.6	25.6	25.6	78	19.7	1	3	270	0.00	30.438 
20:15	25.4	25.4	25.4	78	19.5	1	4	225	0.00	30.439 
20:20	25.4	25.4	25.4	79	19.8	1	2	248	0.00	30.439 
20:25	25.4	25.4	25.4	79	19.8	1	3	248	0.00	30.439 
20:30	25.4	25.4	25.4	79	19.8	1	4	248	0.00	30.439 
20:35	25.4	25.4	25.4	79	19.8	1	3	248	0.00	30.439 
20:40	25.4	25.4	25.4	79	19.8	1	3	248	0.00	30.439 
20:45	25.4	25.4	25.4	79	19.8	1	4	248	0.00	30.427 
20:50	25.4	25.4	25.4	79	19.8	1	4	248	0.00	30.427 
20:55	25.4	25.4	25.4	79	19.8	1	4	248	0.00	30.427 
21:00	25.4	25.4	25.4	79	19.8	1	3	248	0.00	30.427 
21:05	25.4	25.4	25.4	79	19.8	1	4	248	0.00	30.427 
21:10	25.4	25.4	25.4	78	19.5	1	7	248	0.00	30.427 
21:15	25.4	25.4	25.4	78	19.5	0	2	270	0.00	30.424 
21:20	25.4	25.4	25.4	78	19.5	1	4	270	0.00	30.424 
21:25	25.4	25.4	25.4	78	19.5	1	3	248	0.00	30.424 
21:30	25.4	25.4	25.4	78	19.5	1	3	248	0.00	30.425 
21:35	25.4	25.4	25.4	78	19.5	1	4	225	0.00	30.425 
21:40	25.4	25.4	25.4	78	19.5	1	4	270	0.00	30.425 
21:45	25.4	25.4	25.4	77	19.2	1	3	270	0.00	30.423 
21:50	25.4	25.4	25.4	77	19.2	2	6	248	0.00	30.423 
21:55	25.3	25.3	25.3	77	19.1	1	5	270	0.00	30.423 
22:00	25.3	25.3	25.3	81	20.3	2	6	248	0.00	30.420 
22:05	25.3	25.3	25.3	77	19.1	1	4	270	0.00	30.420 
22:10	25.3	25.3	25.3	77	19.1	1	4	248	0.00	30.420 
22:15	25.1	25.1	25.1	77	18.9	1	3	248	0.00	30.415 
22:20	25.1	25.1	25.1	77	18.9	1	3	248	0.00	30.415 
22:25	25.1	25.1	25.1	77	18.9	2	5	248	0.00	30.415 
22:30	25.0	25.0	25.0	77	18.8	2	5	248	0.00	30.409 
22:35	25.0	25.0	25.0	77	18.8	1	3	248	0.00	30.409 
22:40	25.0	25.0	25.0	77	18.8	1	2	248	0.00	30.409 
22:45	25.0	25.0	25.0	77	18.8	2	5	248	0.00	30.411 
22:50	24.8	24.8	24.8	77	18.6	2	6	270	0.00	30.411 
22:55	24.8	24.8	24.8	77	18.6	2	6	248	0.00	30.411 
23:00	24.8	24.8	24.8	77	18.6	3	9	248	0.00	30.413 
23:05	24.8	24.8	24.8	77	18.6	2	6	248	0.00	30.413 
23:10	24.8	24.8	24.8	77	18.6	2	6	248	0.00	30.413 
23:15	24.8	24.8	24.8	77	18.6	2	6	270	0.00	30.417 
23:20	24.8	24.8	24.8	77	18.6	2	4	270	0.00	30.417 
23:25	24.8	24.8	24.8	77	18.6	1	2	270	0.00	30.417 
23:30	24.8	24.8	24.8	78	18.9	1	2	270	0.00	30.424 
23:35	24.8	24.8	24.8	78	18.9	1	4	270	0.00	30.424 
23:40	24.7	24.7	24.7	78	18.8	2	5	248	0.00	30.424 
23:45	24.7	24.7	24.7	78	18.8	1	5	248	0.00	30.417 
23:50	24.7	24.7	24.7	78	18.8	1	3	270	0.00	30.417 
23:55	24.7	24.7	24.7	78	18.8	2	3	248	0.00	30.417 

CoCoRaHS
IN-AL-39
A2 Web Hosting
Creative Commons License
GoDaddy
search engine by freefind advanced

loaded 2018-11-19 10:25:16 • last modified 2010-11-18 10:43:29
Privacy PolicyDisclaimer
• wx.awcolley.com is powered by PmWiki v.2002016 •
• all content (unless otherwise noted) © 2018 A W Colley